createdAt,value
2023-05-19T00:01:19.499Z,58.78
2023-05-19T00:03:52.760Z,58.74
2023-05-19T00:06:22.934Z,59.33
2023-05-19T00:08:49.845Z,59.13
2023-05-19T00:11:18.146Z,59.16
2023-05-19T00:13:48.522Z,59.22
2023-05-19T00:16:15.488Z,59.38
2023-05-19T00:18:43.647Z,59.62
2023-05-19T00:21:10.528Z,59.87
2023-05-19T00:23:37.211Z,59.84
2023-05-19T00:26:03.825Z,60.01
2023-05-19T00:28:31.752Z,59.42
2023-05-19T00:30:58.534Z,59.44
2023-05-19T00:33:25.173Z,59.66
2023-05-19T00:35:51.809Z,59.79
2023-05-19T00:38:19.331Z,59.48
2023-05-19T00:40:45.952Z,59.85
2023-05-19T00:43:12.575Z,59.97
2023-05-19T00:45:41.413Z,59.97
2023-05-19T00:48:08.119Z,59.67
2023-05-19T00:50:35.103Z,59.23
2023-05-19T00:53:01.864Z,59.21
2023-05-19T00:55:29.515Z,59.45
2023-05-19T00:57:56.700Z,59.82
2023-05-19T01:00:23.739Z,60.15
2023-05-19T01:02:52.296Z,60.35
2023-05-19T01:05:19.077Z,60.35
2023-05-19T01:07:47.275Z,60.00
2023-05-19T01:10:13.865Z,60.50
2023-05-19T01:12:40.888Z,60.17
2023-05-19T01:15:07.976Z,60.37
2023-05-19T01:17:39.228Z,60.63
2023-05-19T01:20:11.152Z,60.55
2023-05-19T01:22:54.925Z,59.74
2023-05-19T01:25:42.679Z,59.90
2023-05-19T01:28:24.187Z,59.55
2023-05-19T01:30:53.445Z,59.01
2023-05-19T01:33:21.143Z,59.01
2023-05-19T01:35:48.924Z,59.10
2023-05-19T01:38:17.473Z,59.83
2023-05-19T01:40:45.036Z,60.24
2023-05-19T01:43:14.004Z,60.06
2023-05-19T01:45:41.957Z,59.73
2023-05-19T01:48:12.130Z,59.87
2023-05-19T01:50:39.382Z,60.09
2023-05-19T01:53:06.134Z,60.53
2023-05-19T01:55:34.538Z,60.85
2023-05-19T01:58:06.578Z,60.96
2023-05-19T02:00:42.701Z,60.56
2023-05-19T02:03:17.564Z,60.71
2023-05-19T02:05:51.621Z,60.99
2023-05-19T02:08:20.833Z,61.01
2023-05-19T02:10:50.601Z,60.46
2023-05-19T02:13:20.416Z,60.96
2023-05-19T02:15:48.822Z,61.10
2023-05-19T02:18:19.240Z,61.26
2023-05-19T02:20:50.708Z,61.11
2023-05-19T02:23:17.292Z,61.36
2023-05-19T02:25:43.874Z,61.38
2023-05-19T02:28:10.561Z,60.97
2023-05-19T02:30:37.248Z,60.84
2023-05-19T02:33:06.567Z,60.30
2023-05-19T02:35:34.683Z,60.46
2023-05-19T02:38:01.228Z,60.65
2023-05-19T02:40:27.998Z,60.98
2023-05-19T02:42:54.840Z,61.04
2023-05-19T02:45:21.420Z,60.92
2023-05-19T02:47:48.171Z,60.75
2023-05-19T02:50:14.877Z,61.19
2023-05-19T02:52:42.757Z,61.59
2023-05-19T02:55:09.699Z,61.19
2023-05-19T02:57:36.405Z,61.84
2023-05-19T03:00:03.477Z,61.14
2023-05-19T03:02:30.220Z,61.60
2023-05-19T03:04:56.848Z,61.57
2023-05-19T03:07:25.378Z,61.46
2023-05-19T03:09:53.562Z,61.44
2023-05-19T03:12:20.162Z,61.91
2023-05-19T03:14:47.496Z,61.32
2023-05-19T03:17:14.126Z,61.26
2023-05-19T03:19:41.681Z,61.51
2023-05-19T03:22:08.297Z,61.06
2023-05-19T03:24:35.160Z,61.79
2023-05-19T03:27:05.973Z,61.33
2023-05-19T03:29:33.140Z,61.51
2023-05-19T03:32:00.069Z,61.48
2023-05-19T03:34:26.787Z,61.67
2023-05-19T03:36:53.554Z,61.86
2023-05-19T03:39:21.610Z,61.38
2023-05-19T03:41:48.909Z,61.12
2023-05-19T03:44:17.264Z,61.57
2023-05-19T03:46:44.463Z,61.70
2023-05-19T03:49:29.427Z,61.31
2023-05-19T03:52:15.702Z,61.18
2023-05-19T03:54:53.002Z,61.49
2023-05-19T03:57:19.913Z,61.05
2023-05-19T03:59:48.969Z,61.31
2023-05-19T04:02:16.714Z,61.43
2023-05-19T04:04:43.681Z,60.85
2023-05-19T04:07:11.981Z,60.92
2023-05-19T04:09:39.023Z,60.53
2023-05-19T04:12:06.273Z,60.57
2023-05-19T04:14:32.970Z,60.72
2023-05-19T04:17:01.777Z,60.90
2023-05-19T04:19:28.362Z,60.95
2023-05-19T04:21:55.375Z,61.40
2023-05-19T04:24:21.918Z,61.25
2023-05-19T04:26:48.896Z,61.07
2023-05-19T04:29:18.498Z,61.12
2023-05-19T04:31:45.333Z,61.37
2023-05-19T04:34:13.394Z,61.35
2023-05-19T04:36:40.291Z,61.31
2023-05-19T04:39:09.541Z,61.12
2023-05-19T04:41:42.023Z,61.27
2023-05-19T04:44:09.491Z,61.29
2023-05-19T04:46:37.080Z,60.94
2023-05-19T04:49:04.787Z,61.55
2023-05-19T04:51:32.815Z,61.24
2023-05-19T04:54:01.603Z,61.64
2023-05-19T04:56:28.874Z,61.15
2023-05-19T04:58:56.033Z,61.37
2023-05-19T05:01:26.383Z,61.47
2023-05-19T05:03:55.635Z,61.75
2023-05-19T05:06:22.778Z,61.76
2023-05-19T05:08:51.305Z,61.55
2023-05-19T05:11:18.360Z,61.70
2023-05-19T05:13:46.659Z,61.70
2023-05-19T05:16:14.530Z,61.45
2023-05-19T05:18:44.359Z,62.18
2023-05-19T05:21:11.930Z,62.06
2023-05-19T05:23:38.682Z,61.71
2023-05-19T05:26:10.501Z,62.20
2023-05-19T05:28:37.203Z,61.89
2023-05-19T05:31:03.828Z,61.90
2023-05-19T05:33:31.128Z,61.57
2023-05-19T05:35:57.719Z,61.69
2023-05-19T05:38:25.273Z,61.60
2023-05-19T05:40:51.934Z,61.49
2023-05-19T05:43:20.941Z,61.49
2023-05-19T05:45:53.353Z,61.68
2023-05-19T05:48:20.554Z,61.66
2023-05-19T05:50:48.544Z,62.02
2023-05-19T05:53:19.675Z,61.57
2023-05-19T05:55:49.363Z,61.63
2023-05-19T05:58:17.016Z,62.14
2023-05-19T06:00:45.406Z,61.91
2023-05-19T06:03:12.220Z,61.70
2023-05-19T06:05:39.239Z,61.62
2023-05-19T06:08:06.333Z,61.58
2023-05-19T06:10:33.419Z,61.52
2023-05-19T06:13:00.380Z,61.45
2023-05-19T06:15:27.255Z,61.23
2023-05-19T06:18:18.526Z,61.20
2023-05-19T06:20:47.799Z,61.05
2023-05-19T06:23:14.380Z,60.43
2023-05-19T06:25:41.571Z,60.43
2023-05-19T06:28:08.225Z,60.38
2023-05-19T06:30:34.999Z,60.50
2023-05-19T06:33:15.584Z,60.40
2023-05-19T06:35:44.024Z,60.12
2023-05-19T06:38:10.878Z,59.94
2023-05-19T06:40:37.569Z,59.73
2023-05-19T06:43:05.187Z,59.96
2023-05-19T06:45:52.477Z,59.65
2023-05-19T06:48:19.203Z,59.96
2023-05-19T06:50:47.181Z,59.66
2023-05-19T06:53:14.025Z,59.77
2023-05-19T06:55:54.337Z,59.47
2023-05-19T06:58:27.010Z,59.65
2023-05-19T07:00:53.700Z,59.59
2023-05-19T07:03:21.304Z,59.25
2023-05-19T07:05:49.869Z,59.18
2023-05-19T07:08:16.871Z,59.17
2023-05-19T07:10:43.842Z,59.09
2023-05-19T07:13:15.539Z,59.56
2023-05-19T07:15:42.307Z,59.37
2023-05-19T07:18:09.148Z,59.57
2023-05-19T07:20:35.904Z,59.35
2023-05-19T07:23:05.248Z,59.23
2023-05-19T07:25:32.741Z,58.90
2023-05-19T07:27:59.650Z,58.84
2023-05-19T07:30:26.817Z,58.71
2023-05-19T07:32:53.410Z,58.93
2023-05-19T07:35:20.034Z,58.75
2023-05-19T07:37:46.784Z,58.67
2023-05-19T07:40:15.082Z,58.83
2023-05-19T07:42:42.035Z,58.33
2023-05-19T07:45:09.022Z,58.57
2023-05-19T07:47:35.682Z,58.66
2023-05-19T07:50:02.621Z,58.48
2023-05-19T07:52:29.409Z,58.90
2023-05-19T07:54:56.043Z,58.53
2023-05-19T07:57:24.144Z,58.72
2023-05-19T07:59:50.712Z,58.35
2023-05-19T08:02:17.636Z,58.01
2023-05-19T08:04:44.293Z,57.88
2023-05-19T08:07:11.028Z,58.32
2023-05-19T08:09:37.576Z,57.86
2023-05-19T08:12:05.089Z,58.22
2023-05-19T08:14:34.999Z,58.23
2023-05-19T08:17:01.734Z,58.20
2023-05-19T08:19:28.404Z,58.01
2023-05-19T08:21:55.885Z,57.74
2023-05-19T08:24:22.531Z,57.69
2023-05-19T08:51:16.248Z,56.97
2023-05-19T08:59:08.531Z,56.07
2023-05-19T09:14:01.171Z,55.70
2023-05-19T09:16:33.359Z,56.04
2023-05-19T09:19:02.194Z,55.69
2023-05-19T09:24:24.492Z,54.67
2023-05-19T09:27:03.940Z,54.92
2023-05-19T09:29:31.766Z,54.98
2023-05-19T09:43:14.625Z,54.64
2023-05-19T09:54:23.810Z,54.32
2023-05-19T10:05:14.594Z,55.22
2023-05-19T10:07:41.631Z,55.42
2023-05-19T10:16:00.888Z,53.34
2023-05-19T10:18:30.272Z,51.29
2023-05-19T10:20:58.817Z,51.39
2023-05-19T10:23:26.420Z,51.96
2023-05-19T10:25:56.599Z,51.35
2023-05-19T10:28:27.893Z,50.93
2023-05-19T10:30:56.662Z,51.65
2023-05-19T10:33:33.526Z,51.68
2023-05-19T10:36:09.081Z,51.52
2023-05-19T10:38:45.400Z,51.30
2023-05-19T10:41:13.980Z,51.35
2023-05-19T10:43:52.651Z,51.13
2023-05-19T10:46:24.753Z,50.85
2023-05-19T10:51:34.697Z,50.71
2023-05-19T10:54:03.212Z,51.53
2023-05-19T10:56:31.448Z,50.88
2023-05-19T10:58:58.454Z,51.64
2023-05-19T11:01:31.163Z,51.81
2023-05-19T11:04:04.539Z,52.15
2023-05-19T11:06:32.726Z,52.48
2023-05-19T11:09:01.040Z,52.35
2023-05-19T11:11:43.419Z,52.59
2023-05-19T11:16:53.570Z,52.11
2023-05-19T11:19:26.299Z,52.50
2023-05-19T11:21:55.609Z,52.20
2023-05-19T11:24:38.437Z,52.63
2023-05-19T11:27:17.666Z,53.49
2023-05-19T11:29:44.388Z,53.68
2023-05-19T11:32:11.894Z,52.73
2023-05-19T11:34:44.977Z,53.14
2023-05-19T11:37:12.161Z,53.59
2023-05-19T11:39:41.647Z,53.53
2023-05-19T11:42:09.857Z,54.13
2023-05-19T11:44:36.787Z,54.15
2023-05-19T11:47:05.136Z,54.09
2023-05-19T11:49:32.577Z,53.46
2023-05-19T11:52:05.119Z,53.08
2023-05-19T11:57:14.348Z,53.44
2023-05-19T11:59:49.382Z,53.40
2023-05-19T12:02:17.579Z,53.17
2023-05-19T12:04:44.605Z,52.85
2023-05-19T12:07:30.020Z,53.25
2023-05-19T12:10:01.927Z,53.31
2023-05-19T12:12:30.507Z,53.39
2023-05-19T12:14:57.251Z,52.94
2023-05-19T12:20:06.805Z,52.60
2023-05-19T12:22:34.274Z,53.05
2023-05-19T12:25:04.861Z,53.33
2023-05-19T12:27:35.781Z,53.31
2023-05-19T12:30:03.349Z,52.89
2023-05-19T12:32:30.158Z,52.60
2023-05-19T12:34:57.188Z,52.68
2023-05-19T12:37:26.236Z,52.04
2023-05-19T12:39:55.574Z,52.42
2023-05-19T12:42:31.502Z,51.68
2023-05-19T12:45:00.680Z,51.86
2023-05-19T12:47:33.212Z,52.16
2023-05-19T12:50:04.124Z,52.06
2023-05-19T12:52:35.392Z,52.36
2023-05-19T12:55:05.172Z,52.45
2023-05-19T12:57:35.457Z,51.85
2023-05-19T13:00:06.960Z,51.76
2023-05-19T13:02:34.442Z,52.20
2023-05-19T13:05:01.336Z,52.18
2023-05-19T13:07:28.444Z,52.80
2023-05-19T13:09:55.414Z,53.22
2023-05-19T13:12:23.456Z,53.21
2023-05-19T13:14:53.506Z,53.11
2023-05-19T13:17:23.670Z,52.64
2023-05-19T13:19:50.487Z,53.03
2023-05-19T13:22:17.856Z,52.57
2023-05-19T13:24:44.691Z,53.24
2023-05-19T13:27:11.366Z,53.98
2023-05-19T13:29:38.093Z,53.21
2023-05-19T13:32:06.569Z,53.89
2023-05-19T13:34:33.570Z,53.50
2023-05-19T13:37:00.990Z,53.26
2023-05-19T13:39:27.700Z,53.65
2023-05-19T13:41:55.091Z,53.58
2023-05-19T13:44:21.712Z,53.82
2023-05-19T13:46:49.850Z,54.25
2023-05-19T13:49:20.335Z,53.62
2023-05-19T13:51:47.182Z,54.26
2023-05-19T13:54:13.960Z,53.74
2023-05-19T13:56:40.621Z,54.36
2023-05-19T13:59:08.112Z,54.14
2023-05-19T14:01:34.809Z,54.22
2023-05-19T14:04:01.745Z,53.63
2023-05-19T14:06:30.469Z,53.68
2023-05-19T14:08:57.116Z,53.20
2023-05-19T14:11:23.733Z,52.90
2023-05-19T14:13:52.703Z,54.02
2023-05-19T14:16:22.264Z,54.22
2023-05-19T14:18:49.072Z,54.41
2023-05-19T14:21:15.935Z,55.08
2023-05-19T14:23:44.906Z,55.00
2023-05-19T14:26:11.638Z,54.46
2023-05-19T14:28:38.329Z,54.68
2023-05-19T14:31:05.986Z,54.22
2023-05-19T14:33:35.651Z,55.23
2023-05-19T14:36:10.615Z,54.79
2023-05-19T14:38:37.210Z,54.70
2023-05-19T14:41:13.331Z,54.48
2023-05-19T14:43:42.505Z,54.28
2023-05-19T14:46:09.319Z,54.79
2023-05-19T14:48:36.698Z,54.41
2023-05-19T14:51:03.423Z,54.75
2023-05-19T14:53:30.896Z,54.65
2023-05-19T14:55:57.487Z,54.17
2023-05-19T14:58:28.191Z,55.22
2023-05-19T15:00:57.356Z,55.58
2023-05-19T15:03:24.088Z,55.28
2023-05-19T15:05:50.751Z,55.75
2023-05-19T15:08:17.621Z,55.04
2023-05-19T15:10:48.127Z,54.77
2023-05-19T15:13:14.818Z,55.36
2023-05-19T15:15:43.494Z,55.05
2023-05-19T15:18:10.158Z,55.46
2023-05-19T15:20:37.069Z,55.42
2023-05-19T15:23:04.433Z,55.81
2023-05-19T15:25:31.124Z,55.78
2023-05-19T15:27:57.664Z,54.99
2023-05-19T15:30:24.337Z,55.24
2023-05-19T15:32:52.317Z,55.48
2023-05-19T15:35:19.091Z,55.75
2023-05-19T15:37:45.779Z,56.26
2023-05-19T15:40:12.759Z,55.57
2023-05-19T15:42:39.356Z,55.64
2023-05-19T15:45:08.025Z,55.86
2023-05-19T15:47:34.787Z,56.66
2023-05-19T15:50:02.873Z,57.05
2023-05-19T15:52:29.456Z,56.21
2023-05-19T15:54:58.931Z,56.57
2023-05-19T15:57:25.880Z,56.54
2023-05-19T15:59:52.450Z,56.24
2023-05-19T16:02:19.592Z,57.02
2023-05-19T16:04:46.281Z,57.13
2023-05-19T16:07:14.432Z,57.10
2023-05-19T16:09:41.084Z,56.50
2023-05-19T16:12:07.753Z,55.72
2023-05-19T16:14:36.693Z,55.34
2023-05-19T16:17:03.488Z,55.62
2023-05-19T16:19:30.081Z,55.10
2023-05-19T16:21:56.791Z,55.67
2023-05-19T16:24:25.123Z,55.90
2023-05-19T16:26:53.575Z,56.13
2023-05-19T16:29:20.385Z,55.81
2023-05-19T16:31:47.034Z,56.77
2023-05-19T16:34:13.610Z,55.61
2023-05-19T16:36:40.153Z,55.59
2023-05-19T16:39:06.744Z,56.35
2023-05-19T16:41:34.697Z,56.19
2023-05-19T16:44:02.284Z,55.59
2023-05-19T16:46:30.591Z,55.63
2023-05-19T16:48:57.969Z,55.24
2023-05-19T16:51:24.628Z,55.06
2023-05-19T16:53:51.210Z,54.99
2023-05-19T16:56:17.751Z,56.00
2023-05-19T16:58:46.009Z,55.99
2023-05-19T17:01:12.652Z,56.05
2023-05-19T17:03:39.362Z,56.13
2023-05-19T17:06:06.276Z,55.75
2023-05-19T17:08:32.850Z,56.05
2023-05-19T17:10:59.445Z,56.62
2023-05-19T17:13:28.231Z,56.42
2023-05-19T17:15:56.381Z,56.01
2023-05-19T17:18:23.063Z,56.26
2023-05-19T17:20:49.643Z,56.34
2023-05-19T17:23:16.297Z,56.94
2023-05-19T17:25:43.029Z,56.60
2023-05-19T17:28:09.688Z,56.78
2023-05-19T17:30:36.582Z,56.86
2023-05-19T17:33:04.630Z,56.92
2023-05-19T17:35:31.678Z,56.55
2023-05-19T17:37:58.271Z,56.17
2023-05-19T17:40:24.850Z,55.85
2023-05-19T17:42:51.466Z,55.92
2023-05-19T17:45:18.188Z,56.32
2023-05-19T17:47:44.858Z,56.93
2023-05-19T17:50:12.885Z,56.88
2023-05-19T17:52:40.577Z,57.02
2023-05-19T17:55:07.987Z,57.03
2023-05-19T17:57:35.131Z,57.24
2023-05-19T18:00:03.199Z,57.36
2023-05-19T18:02:31.755Z,57.43
2023-05-19T18:04:58.844Z,57.42
2023-05-19T18:07:27.878Z,57.04
2023-05-19T18:09:55.594Z,57.09
2023-05-19T18:12:22.796Z,57.46
2023-05-19T18:14:49.374Z,57.47
2023-05-19T18:17:15.985Z,57.75
2023-05-19T18:19:42.740Z,57.41
2023-05-19T18:22:12.836Z,57.45
2023-05-19T18:24:41.426Z,57.67
2023-05-19T18:27:08.051Z,57.56
2023-05-19T18:29:34.990Z,57.75
2023-05-19T18:32:01.802Z,57.52
2023-05-19T18:34:30.091Z,57.74
2023-05-19T18:36:56.731Z,57.44
2023-05-19T18:39:23.516Z,57.46
2023-05-19T18:41:51.507Z,57.49
2023-05-19T18:44:18.049Z,57.24
2023-05-19T18:46:44.651Z,57.42
2023-05-19T18:49:12.071Z,57.48
2023-05-19T18:51:38.846Z,57.55
2023-05-19T18:54:05.626Z,57.48
2023-05-19T18:56:33.327Z,57.26
2023-05-19T18:59:01.249Z,57.27
2023-05-19T19:01:28.049Z,57.02
2023-05-19T19:03:54.777Z,56.92
2023-05-19T19:06:22.997Z,57.19
2023-05-19T19:08:49.609Z,57.15
2023-05-19T19:11:16.221Z,57.18
2023-05-19T19:13:43.680Z,57.02
2023-05-19T19:16:11.603Z,57.69
2023-05-19T19:18:38.324Z,58.09
2023-05-19T19:21:05.870Z,58.32
2023-05-19T19:23:32.849Z,58.38
2023-05-19T19:25:59.516Z,58.08
2023-05-19T19:28:26.481Z,57.96
2023-05-19T19:30:53.410Z,58.34
2023-05-19T19:33:21.651Z,57.99
2023-05-19T19:35:48.261Z,57.78
2023-05-19T19:38:14.896Z,57.50
2023-05-19T19:40:41.471Z,57.87
2023-05-19T19:43:08.080Z,57.72
2023-05-19T19:45:36.282Z,58.09
2023-05-19T19:48:03.049Z,58.39
2023-05-19T19:50:31.455Z,58.75
2023-05-19T19:52:58.094Z,58.43
2023-05-19T19:55:24.654Z,58.93
2023-05-19T19:57:51.400Z,59.16
2023-05-19T20:00:18.560Z,59.01
2023-05-19T20:03:02.690Z,58.97
2023-05-19T20:05:32.233Z,58.89
2023-05-19T20:07:58.984Z,59.17
2023-05-19T20:10:25.779Z,59.13
2023-05-19T20:12:52.510Z,58.92
2023-05-19T20:15:19.401Z,58.83
2023-05-19T20:17:46.351Z,59.05
2023-05-19T20:20:13.284Z,59.13
2023-05-19T20:22:41.289Z,58.93
2023-05-19T20:25:08.325Z,59.22
2023-05-19T20:27:34.908Z,59.02
2023-05-19T20:30:01.550Z,58.74
2023-05-19T20:32:28.226Z,59.08
2023-05-19T20:34:54.838Z,59.18
2023-05-19T20:37:22.321Z,58.87
2023-05-19T20:39:50.486Z,59.21
2023-05-19T20:42:17.067Z,59.36
2023-05-19T20:44:43.983Z,59.11
2023-05-19T20:47:10.732Z,59.39
2023-05-19T20:49:37.695Z,59.11
2023-05-19T20:52:04.588Z,59.50
2023-05-19T20:54:31.170Z,59.31
2023-05-19T20:56:59.237Z,59.39
2023-05-19T20:59:26.148Z,59.07
2023-05-19T21:01:52.695Z,59.13
2023-05-19T21:04:19.417Z,59.19
2023-05-19T21:06:46.235Z,58.97
2023-05-19T21:09:13.002Z,59.06
2023-05-19T21:11:39.591Z,59.35
2023-05-19T21:14:08.146Z,59.36
2023-05-19T21:16:38.686Z,59.21
2023-05-19T21:19:06.529Z,59.53
2023-05-19T21:21:33.728Z,59.52
2023-05-19T21:24:00.570Z,59.74
2023-05-19T21:26:27.299Z,59.80
2023-05-19T21:28:53.916Z,60.05
2023-05-19T21:31:21.998Z,60.19
2023-05-19T21:33:48.621Z,60.16
2023-05-19T21:36:15.734Z,59.83
2023-05-19T21:38:42.490Z,60.22
2023-05-19T21:41:09.121Z,60.08
2023-05-19T21:43:35.759Z,59.88
2023-05-19T21:46:02.334Z,60.19
2023-05-19T21:48:30.921Z,59.87
2023-05-19T21:50:57.767Z,60.23
2023-05-19T21:53:24.600Z,59.97
2023-05-19T21:55:51.172Z,59.99
2023-05-19T21:58:18.375Z,59.96
2023-05-19T22:00:48.192Z,60.25
2023-05-19T22:03:14.904Z,59.96
2023-05-19T22:05:42.957Z,60.30
2023-05-19T22:08:09.772Z,60.18
2023-05-19T22:10:37.394Z,60.37
2023-05-19T22:13:03.999Z,60.41
2023-05-19T22:15:30.638Z,60.45
2023-05-19T22:17:57.491Z,60.33
2023-05-19T22:20:24.090Z,60.14
2023-05-19T22:22:52.229Z,60.02
2023-05-19T22:25:18.956Z,60.17
2023-05-19T22:27:45.611Z,60.34
2023-05-19T22:30:12.393Z,60.46
2023-05-19T22:32:38.987Z,60.08
2023-05-19T22:35:06.611Z,60.24
2023-05-19T22:37:33.626Z,60.07
2023-05-19T22:40:01.573Z,60.05
2023-05-19T22:42:28.495Z,60.32
2023-05-19T22:44:55.064Z,60.23
2023-05-19T22:47:22.078Z,60.51
2023-05-19T22:49:49.974Z,60.20
2023-05-19T22:52:16.696Z,60.24
2023-05-19T22:54:43.266Z,60.35
2023-05-19T22:57:11.669Z,60.31
2023-05-19T22:59:38.353Z,60.08
2023-05-19T23:02:05.095Z,60.04
2023-05-19T23:04:31.780Z,60.29
2023-05-19T23:06:58.463Z,60.02
2023-05-19T23:09:27.274Z,59.90
2023-05-19T23:11:54.323Z,59.85
2023-05-19T23:14:22.288Z,60.00
2023-05-19T23:16:49.041Z,60.36
2023-05-19T23:19:16.965Z,60.01
2023-05-19T23:21:44.646Z,60.08
2023-05-19T23:24:11.397Z,60.21
2023-05-19T23:26:37.965Z,60.22
2023-05-19T23:29:04.488Z,60.12
2023-05-19T23:31:32.444Z,60.35
2023-05-19T23:34:01.955Z,60.59
2023-05-19T23:36:28.606Z,60.59
2023-05-19T23:38:55.210Z,60.75
2023-05-19T23:41:21.737Z,60.32
2023-05-19T23:43:48.312Z,60.67
2023-05-19T23:46:14.953Z,60.56
2023-05-19T23:48:43.204Z,60.56
2023-05-19T23:51:10.073Z,60.67
2023-05-19T23:53:36.766Z,60.76
2023-05-19T23:56:03.601Z,60.79
2023-05-19T23:58:30.298Z,60.74
